Time;durP1;ratioP1;P1;durP2;ratioP2;P2;SDS_P1;SDS_P2;PMS_P1;PMS_P2;Temp;Humidity;BMP_temperature;BMP_pressure;BME280_temperature;BME280_humidity;BME280_pressure;Samples;Min_cycle;Max_cycle;Signal;HPM_P1;HPM_P2
2022/05/30 04:07:10;;;;;;;10.00;9.10;;;4.70;99.90;;;;;;4868281;29;20309;-79
2022/05/30 04:09:38;;;;;;;11.70;9.50;;;4.70;99.90;;;;;;4876698;29;20936;-79
2022/05/30 04:12:07;;;;;;;10.73;9.63;;;4.80;99.90;;;;;;4877895;29;20668;-77
2022/05/30 04:14:35;;;;;;;10.23;9.33;;;4.90;99.90;;;;;;4876187;29;20301;-79
2022/05/30 04:17:03;;;;;;;11.60;9.27;;;4.90;99.90;;;;;;4878505;29;20218;-79
2022/05/30 04:19:32;;;;;;;9.90;8.90;;;4.90;99.90;;;;;;4877952;29;20229;-79
2022/05/30 04:22:01;;;;;;;10.80;9.80;;;4.90;99.90;;;;;;4878034;29;20237;-78
2022/05/30 04:24:30;;;;;;;10.27;8.20;;;5.00;99.90;;;;;;4878615;29;20220;-79
2022/05/30 04:26:58;;;;;;;10.20;8.67;;;5.00;99.90;;;;;;4875814;29;20376;-78
2022/05/30 04:29:26;;;;;;;9.80;8.80;;;5.10;99.90;;;;;;4878184;29;20240;-78
2022/05/30 04:31:55;;;;;;;9.43;8.57;;;5.10;99.90;;;;;;4879178;29;20234;-78
2022/05/30 04:34:23;;;;;;;9.60;8.60;;;5.20;99.90;;;;;;4877145;29;20213;-79
2022/05/30 04:36:51;;;;;;;9.50;8.50;;;5.20;99.90;;;;;;4885416;29;20301;-79
2022/05/30 04:39:19;;;;;;;9.20;8.30;;;5.30;99.90;;;;;;4880783;29;20301;-79
2022/05/30 04:41:49;;;;;;;9.63;8.67;;;5.30;99.90;;;;;;4882206;29;20365;-76
2022/05/30 04:44:18;;;;;;;10.47;8.27;;;5.40;99.90;;;;;;4880566;29;20214;-78
2022/05/30 04:46:51;;;;;;;8.73;7.83;;;5.50;99.90;;;;;;4879941;29;20304;-78
2022/05/30 04:49:20;;;;;;;8.93;8.03;;;5.60;99.90;;;;;;4877250;29;20224;-77
2022/05/30 04:51:48;;;;;;;8.50;7.70;;;5.70;99.90;;;;;;4879351;29;20264;-77
2022/05/30 04:54:16;;;;;;;9.47;8.50;;;5.70;99.90;;;;;;4878750;29;20328;-80
2022/05/30 04:56:46;;;;;;;7.80;7.10;;;5.80;99.90;;;;;;4878586;29;20210;-79
2022/05/30 04:59:15;;;;;;;9.50;7.53;;;5.90;99.90;;;;;;4878464;29;20360;-77
2022/05/30 05:01:44;;;;;;;9.93;7.80;;;6.00;99.90;;;;;;4879247;29;20304;-79
2022/05/30 05:04:12;;;;;;;8.57;7.70;;;6.10;99.90;;;;;;4878727;29;20214;-79
2022/05/30 05:06:40;;;;;;;8.73;7.83;;;6.10;99.90;;;;;;4878706;29;20229;-79
2022/05/30 05:09:25;;;;;;;8.23;7.43;;;6.10;99.90;;;;;;4878042;29;20234;-80
2022/05/30 05:11:53;;;;;;;8.17;7.37;;;6.20;99.90;;;;;;4877380;29;20214;-80
2022/05/30 05:14:23;;;;;;;8.90;8.00;;;6.30;99.90;;;;;;4878163;29;20253;-79
2022/05/30 05:16:51;;;;;;;8.37;7.47;;;6.30;99.90;;;;;;4878468;29;20242;-80
2022/05/30 05:19:19;;;;;;;8.73;7.60;;;6.30;99.90;;;;;;4878307;29;20266;-78
2022/05/30 05:21:47;;;;;;;8.03;7.27;;;6.40;99.90;;;;;;4878311;29;20282;-78
2022/05/30 05:24:16;;;;;;;8.57;7.20;;;6.60;99.90;;;;;;4877922;29;20297;-78
2022/05/30 05:26:45;;;;;;;7.40;6.60;;;6.60;99.90;;;;;;4877595;29;20290;-78
2022/05/30 05:29:14;;;;;;;8.80;6.63;;;6.80;99.90;;;;;;4870159;29;20217;-75
2022/05/30 05:32:09;;;;;;;9.87;7.10;;;6.80;99.90;;;;;;4878509;29;20213;-80
2022/05/30 05:34:38;;;;;;;9.83;7.00;;;7.00;99.90;;;;;;4878195;29;20218;-78
2022/05/30 05:37:06;;;;;;;7.80;7.00;;;7.00;99.90;;;;;;4877937;29;20816;-76
2022/05/30 05:39:35;;;;;;;9.30;7.10;;;7.20;99.90;;;;;;4862410;29;20243;-78
2022/05/30 05:42:04;;;;;;;6.67;5.93;;;7.30;99.90;;;;;;4863004;29;20215;-81
2022/05/30 05:44:32;;;;;;;6.67;5.93;;;7.40;99.90;;;;;;4878551;29;20289;-81
2022/05/30 05:47:00;;;;;;;6.33;5.73;;;7.60;99.90;;;;;;4880539;29;20245;-78
2022/05/30 05:49:29;;;;;;;4.83;4.33;;;7.90;99.90;;;;;;4880310;29;20298;-77
2022/05/30 05:51:57;;;;;;;4.20;3.70;;;8.50;99.90;;;;;;4879193;29;20252;-79
2022/05/30 05:54:26;;;;;;;3.67;3.10;;;9.60;99.90;;;;;;4881263;29;20236;-77
2022/05/30 05:56:54;;;;;;;3.53;3.07;;;10.90;99.90;;;;;;4875834;29;20710;-77
2022/05/30 05:59:22;;;;;;;4.50;2.80;;;12.00;99.90;;;;;;4880059;29;20266;-77
2022/05/30 06:01:51;;;;;;;2.60;2.40;;;13.70;99.90;;;;;;4876009;29;20218;-76
2022/05/30 06:04:19;;;;;;;3.13;2.47;;;15.10;99.90;;;;;;4866353;29;20257;-78
2022/05/30 06:06:48;;;;;;;2.40;2.20;;;16.10;99.90;;;;;;4876606;29;20269;-78
2022/05/30 06:09:16;;;;;;;2.87;2.50;;;17.10;99.90;;;;;;4862933;29;20681;-76
2022/05/30 06:11:44;;;;;;;3.47;2.40;;;17.80;99.90;;;;;;4864096;29;20302;-79
2022/05/30 06:14:12;;;;;;;2.63;2.30;;;18.50;99.90;;;;;;4888236;29;20230;-78
2022/05/30 06:16:40;;;;;;;2.97;2.40;;;19.50;99.90;;;;;;4888609;29;20249;-78
2022/05/30 06:19:11;;;;;;;2.90;1.80;;;20.20;99.90;;;;;;4880038;29;20600;-75
2022/05/30 06:21:40;;;;;;;3.10;2.10;;;19.90;98.20;;;;;;4880603;29;20242;-76
2022/05/30 06:24:12;;;;;;;2.33;1.80;;;19.70;97.20;;;;;;4861827;29;20303;-78
2022/05/30 06:26:40;;;;;;;2.30;1.90;;;20.00;98.80;;;;;;4870884;29;20573;-75
2022/05/30 06:29:08;;;;;;;2.20;1.87;;;19.80;96.60;;;;;;4876589;29;20572;-77
2022/05/30 06:31:36;;;;;;;1.87;1.77;;;19.40;97.60;;;;;;4875176;29;20237;-78
2022/05/30 06:34:04;;;;;;;3.47;1.90;;;20.10;99.70;;;;;;4883947;29;20218;-79
2022/05/30 06:36:33;;;;;;;4.60;2.10;;;20.60;95.80;;;;;;4861475;29;20219;-77
2022/05/30 06:39:01;;;;;;;1.90;1.80;;;19.50;97.20;;;;;;4876098;29;20298;-75
2022/05/30 06:41:33;;;;;;;3.40;2.03;;;20.10;97.40;;;;;;4873216;29;20211;-76
2022/05/30 06:44:04;;;;;;;2.57;1.80;;;20.80;94.40;;;;;;4871561;29;20302;-78
2022/05/30 06:46:34;;;;;;;3.20;2.00;;;21.10;95.40;;;;;;4868413;29;20218;-75
2022/05/30 06:49:03;;;;;;;3.77;2.20;;;21.00;96.20;;;;;;4877910;29;20242;-76
2022/05/30 06:51:33;;;;;;;4.30;2.10;;;21.50;94.10;;;;;;4872686;29;20215;-77
2022/05/30 06:54:02;;;;;;;2.25;1.77;;;22.80;92.50;;;;;;4879428;29;20345;-76
2022/05/30 06:56:34;;;;;;;2.63;2.00;;;23.10;90.80;;;;;;4875197;29;20213;-77
2022/05/30 06:59:02;;;;;;;2.80;2.35;;;23.20;91.30;;;;;;4863815;29;20812;-76
2022/05/30 07:01:33;;;;;;;2.58;2.35;;;23.70;90.70;;;;;;4871757;29;20206;-76
2022/05/30 07:07:04;;;;;;;2.53;2.33;;;21.80;90.20;;;;;;4914175;29;20702;-76
2022/05/30 07:09:33;;;;;;;3.35;2.50;;;22.30;92.30;;;;;;4917041;29;20288;-76
2022/05/30 07:12:02;;;;;;;2.80;2.28;;;22.70;85.00;;;;;;4919046;29;20292;-77
2022/05/30 07:14:30;;;;;;;2.67;2.03;;;22.80;89.30;;;;;;4918160;29;20209;-75
2022/05/30 07:16:59;;;;;;;3.42;2.85;;;22.20;90.50;;;;;;4916878;29;20289;-75
2022/05/30 07:19:27;;;;;;;2.92;2.40;;;22.30;84.80;;;;;;4916247;29;20247;-75
2022/05/30 07:21:55;;;;;;;2.55;1.95;;;22.90;83.10;;;;;;4916534;29;20595;-78
2022/05/30 07:24:23;;;;;;;3.45;2.10;;;23.10;84.90;;;;;;4925639;29;20433;-77
2022/05/30 07:26:51;;;;;;;2.95;2.20;;;22.50;84.20;;;;;;4934936;29;20299;-78
2022/05/30 07:29:20;;;;;;;2.40;2.20;;;22.00;85.80;;;;;;4935618;29;20208;-78
2022/05/30 07:31:52;;;;;;;3.23;1.90;;;21.20;84.00;;;;;;4936433;29;20630;-76
2022/05/30 07:34:20;;;;;;;3.80;2.00;;;21.20;85.00;;;;;;4935367;29;20236;-75
2022/05/30 07:36:48;;;;;;;4.43;2.40;;;21.30;85.30;;;;;;4937157;29;20208;-75
2022/05/30 07:39:18;;;;;;;2.10;1.90;;;21.40;85.50;;;;;;4937540;29;20228;-75
2022/05/30 07:41:46;;;;;;;2.00;1.80;;;21.40;84.00;;;;;;4925689;29;20235;-78
2022/05/30 07:44:14;;;;;;;2.47;1.90;;;21.80;86.30;;;;;;4935438;29;20247;-77
2022/05/30 07:46:45;;;;;;;4.07;1.83;;;22.30;87.30;;;;;;4935815;29;20247;-78
2022/05/30 07:49:13;;;;;;;2.28;1.90;;;23.20;79.20;;;;;;4930952;29;20316;-75
2022/05/30 07:51:44;;;;;;;2.63;1.70;;;22.60;77.80;;;;;;4930246;29;20208;-75
2022/05/30 07:54:12;;;;;;;3.35;2.15;;;22.60;80.80;;;;;;4936450;29;20204;-78
2022/05/30 07:56:44;;;;;;;2.15;1.92;;;22.60;84.10;;;;;;4937613;29;20236;-77
2022/05/30 07:59:12;;;;;;;2.97;1.70;;;23.60;79.70;;;;;;4934672;29;20603;-76
2022/05/30 08:01:40;;;;;;;1.30;1.20;;;23.20;76.80;;;;;;4934876;29;20701;-76
2022/05/30 08:04:13;;;;;;;2.08;1.42;;;22.90;71.30;;;;;;4934954;29;20335;-76
2022/05/30 08:06:42;;;;;;;3.55;1.90;;;22.70;75.20;;;;;;4931301;29;20244;-77
2022/05/30 08:09:14;;;;;;;2.03;1.80;;;22.10;75.20;;;;;;4930409;29;20232;-76
2022/05/30 08:11:42;;;;;;;2.70;2.00;;;22.20;81.70;;;;;;4934782;29;20238;-75
2022/05/30 08:14:10;;;;;;;3.65;2.53;;;23.40;82.80;;;;;;4935665;29;20400;-76
2022/05/30 08:16:39;;;;;;;2.63;2.20;;;23.40;78.00;;;;;;4942021;29;20693;-75
2022/05/30 08:19:18;;;;;;;3.25;2.63;;;23.60;77.50;;;;;;4936521;29;20307;-76
2022/05/30 08:22:09;;;;;;;4.72;2.95;;;22.80;74.00;;;;;;4941015;29;20232;-76
2022/05/30 08:24:38;;;;;;;3.80;2.50;;;22.30;77.70;;;;;;4933662;29;20224;-77
2022/05/30 08:27:07;;;;;;;3.75;2.30;;;22.80;77.80;;;;;;4934949;29;20216;-76
2022/05/30 08:29:36;;;;;;;3.67;2.30;;;23.10;77.50;;;;;;4934434;29;20295;-77
2022/05/30 08:32:07;;;;;;;2.78;2.20;;;22.60;76.30;;;;;;4933651;29;20212;-77
2022/05/30 08:34:37;;;;;;;3.45;2.40;;;23.10;76.50;;;;;;4942549;29;20208;-75
2022/05/30 08:37:06;;;;;;;3.25;2.13;;;23.50;78.40;;;;;;4934781;29;20208;-77
2022/05/30 08:42:30;;;;;;;2.95;2.20;;;23.90;76.60;;;;;;4926900;29;20203;-77
2022/05/30 08:44:58;;;;;;;2.47;2.28;;;23.20;74.80;;;;;;4934283;29;20637;-75
2022/05/30 08:47:47;;;;;;;3.10;2.30;;;24.50;69.70;;;;;;4933993;29;20209;-77
2022/05/30 08:50:30;;;;;;;1.70;1.60;;;24.30;71.20;;;;;;4935020;29;20200;-76
2022/05/30 08:53:19;;;;;;;3.22;1.90;;;24.60;67.90;;;;;;4931474;29;20311;-78
2022/05/30 08:55:51;;;;;;;2.28;2.08;;;24.50;71.20;;;;;;4926227;29;20285;-77
2022/05/30 08:58:37;;;;;;;3.17;2.50;;;24.40;70.10;;;;;;4933321;29;20565;-79
2022/05/30 09:01:09;;;;;;;4.05;2.70;;;25.00;67.70;;;;;;4932816;29;20234;-80
2022/05/30 09:03:43;;;;;;;2.70;2.20;;;24.50;66.80;;;;;;4934084;29;20231;-76
2022/05/30 09:06:20;;;;;;;4.00;1.98;;;23.00;73.10;;;;;;4934182;29;20216;-76
2022/05/30 09:08:53;;;;;;;4.07;2.55;;;23.60;71.30;;;;;;4941892;29;20295;-78
2022/05/30 09:11:32;;;;;;;2.42;2.10;;;24.50;71.20;;;;;;4935517;29;20236;-78
2022/05/30 09:14:06;;;;;;;2.40;2.00;;;24.60;69.80;;;;;;4934120;29;20243;-79
2022/05/30 09:16:38;;;;;;;3.88;2.08;;;24.50;70.30;;;;;;4938591;29;20287;-79
2022/05/30 09:19:10;;;;;;;4.35;2.10;;;24.30;72.20;;;;;;4938327;29;20220;-78
2022/05/30 09:21:40;;;;;;;3.47;1.90;;;24.70;75.30;;;;;;4938602;29;20670;-79
2022/05/30 09:24:09;;;;;;;3.42;2.15;;;25.10;76.60;;;;;;4937124;29;20713;-78
2022/05/30 09:26:39;;;;;;;3.83;2.03;;;25.60;69.80;;;;;;4937821;29;20275;-75
2022/05/30 09:29:14;;;;;;;2.15;1.80;;;25.70;71.20;;;;;;4937958;29;20311;-79
2022/05/30 09:31:56;;;;;;;2.40;1.65;;;26.20;70.60;;;;;;4938175;29;20200;-81
2022/05/30 09:34:32;;;;;;;3.45;2.00;;;26.70;65.00;;;;;;4931472;29;20208;-77
2022/05/30 09:37:02;;;;;;;2.67;2.03;;;25.50;66.20;;;;;;4937017;29;20666;-77
2022/05/30 09:39:41;;;;;;;3.70;2.03;;;23.50;70.00;;;;;;4938102;29;20657;-74
2022/05/30 09:42:24;;;;;;;2.38;1.70;;;22.60;74.00;;;;;;4935170;29;20259;-76
2022/05/30 09:44:57;;;;;;;2.95;1.85;;;23.20;74.20;;;;;;4936523;29;20216;-75
2022/05/30 09:47:26;;;;;;;1.60;1.50;;;22.30;67.30;;;;;;4937019;29;20284;-75
2022/05/30 09:49:57;;;;;;;1.87;1.53;;;21.60;73.70;;;;;;4936526;29;20208;-77
2022/05/30 09:52:37;;;;;;;1.80;1.43;;;21.90;76.30;;;;;;4935865;29;20757;-78
2022/05/30 09:55:24;;;;;;;2.70;1.45;;;23.00;77.80;;;;;;4933100;29;20258;-76
2022/05/30 09:57:58;;;;;;;2.20;1.73;;;24.40;67.80;;;;;;4935161;29;20299;-75
2022/05/30 10:00:48;;;;;;;1.80;1.70;;;24.40;62.60;;;;;;4935069;29;20299;-79
2022/05/30 10:03:29;;;;;;;2.75;1.95;;;23.40;66.50;;;;;;4936512;29;20263;-75
2022/05/30 10:06:20;;;;;;;3.05;1.80;;;22.20;68.20;;;;;;4935667;29;20696;-74
2022/05/30 10:09:08;;;;;;;2.40;1.83;;;22.70;70.00;;;;;;4932145;29;20244;-76
2022/05/30 10:11:36;;;;;;;2.07;1.50;;;21.60;73.30;;;;;;4935882;29;20684;-78
2022/05/30 10:14:18;;;;;;;1.40;1.30;;;20.30;77.80;;;;;;4931420;29;20302;-75
2022/05/30 10:16:49;;;;;;;1.97;1.50;;;20.20;78.20;;;;;;4930489;29;20643;-77
2022/05/30 10:19:26;;;;;;;2.93;1.30;;;21.50;78.00;;;;;;4930391;29;20377;-76
2022/05/30 10:28:16;;;;;;;2.17;1.30;;;23.20;73.80;;;;;;4930584;29;20247;-79
2022/05/30 10:30:55;;;;;;;4.05;1.27;;;23.40;70.40;;;;;;4938019;29;20227;-75
2022/05/30 10:33:39;;;;;;;1.93;1.40;;;22.40;73.30;;;;;;4936007;29;20212;-74
2022/05/30 10:36:19;;;;;;;1.50;1.20;;;21.70;75.90;;;;;;4930653;29;20222;-75
2022/05/30 10:39:03;;;;;;;1.90;1.20;;;19.90;74.70;;;;;;4935549;29;20208;-76
2022/05/30 10:41:39;;;;;;;2.90;1.40;;;19.40;77.50;;;;;;4932260;29;20220;-77
2022/05/30 10:44:15;;;;;;;2.93;1.30;;;18.90;80.40;;;;;;4934015;29;20212;-75
2022/05/30 10:46:53;;;;;;;1.93;1.37;;;19.20;84.80;;;;;;4925087;29;20304;-75
2022/05/30 10:49:27;;;;;;;3.03;1.30;;;20.40;85.70;;;;;;4938845;29;20247;-76
2022/05/30 10:52:00;;;;;;;1.83;1.20;;;21.80;79.10;;;;;;4937655;29;20295;-75
2022/05/30 10:54:33;;;;;;;1.50;1.17;;;22.00;69.30;;;;;;4940836;29;20208;-74
2022/05/30 10:57:16;;;;;;;1.67;1.10;;;21.00;70.60;;;;;;4935647;29;20216;-75
2022/05/30 10:59:50;;;;;;;1.90;1.40;;;20.10;76.10;;;;;;4939791;29;20585;-74
2022/05/30 11:02:25;;;;;;;2.53;1.10;;;19.40;79.20;;;;;;4936885;29;20283;-74
2022/05/30 11:05:00;;;;;;;1.57;1.10;;;19.00;81.40;;;;;;4934009;29;20214;-75
2022/05/30 11:07:43;;;;;;;1.53;1.23;;;18.70;82.80;;;;;;4939159;29;20208;-75
2022/05/30 11:10:24;;;;;;;1.73;1.20;;;18.80;83.20;;;;;;4945499;29;20220;-76
2022/05/30 11:13:03;;;;;;;3.80;1.13;;;18.60;81.30;;;;;;4938500;29;20220;-75
2022/05/30 11:15:36;;;;;;;1.23;0.90;;;18.60;81.60;;;;;;4933482;29;20572;-73
2022/05/30 11:18:12;;;;;;;1.23;0.90;;;19.50;85.60;;;;;;4936076;29;20223;-76
2022/05/30 11:20:49;;;;;;;2.10;1.10;;;20.80;83.90;;;;;;4930135;29;20270;-76
2022/05/30 11:23:18;;;;;;;2.63;1.07;;;21.30;76.40;;;;;;4928564;29;20310;-74
2022/05/30 11:26:17;;;;;;;1.10;1.00;;;22.40;72.20;;;;;;4934003;29;20208;-78
2022/05/30 11:29:09;;;;;;;1.70;1.10;;;22.00;73.10;;;;;;4933896;29;20234;-75
2022/05/30 11:31:47;;;;;;;1.93;1.00;;;21.80;77.00;;;;;;4929941;29;20209;-75
2022/05/30 11:34:39;;;;;;;2.83;1.20;;;20.60;74.70;;;;;;4931108;29;20235;-74
2022/05/30 11:37:37;;;;;;;1.20;1.10;;;19.50;78.40;;;;;;4933582;29;20609;-73
2022/05/30 11:40:17;;;;;;;1.80;1.17;;;18.90;84.40;;;;;;4932595;29;20267;-74
2022/05/30 11:42:58;;;;;;;1.33;1.00;;;18.70;85.20;;;;;;4930586;29;20256;-73
2022/05/30 11:45:45;;;;;;;2.27;1.10;;;18.10;82.30;;;;;;4934885;29;20242;-75
2022/05/30 11:48:26;;;;;;;1.37;1.10;;;17.20;85.70;;;;;;4934479;29;20220;-75
2022/05/30 11:51:01;;;;;;;4.37;1.27;;;17.10;88.50;;;;;;4933237;29;20278;-77
2022/05/30 11:54:13;;;;;;;3.30;1.20;;;16.80;89.50;;;;;;4933808;29;20717;-76
2022/05/30 11:56:51;;;;;;;1.43;1.30;;;16.90;87.60;;;;;;4936351;29;20208;-77
2022/05/30 11:59:42;;;;;;;2.90;1.10;;;16.80;89.00;;;;;;4930070;29;20950;-76
2022/05/30 12:02:16;;;;;;;1.90;1.30;;;16.70;91.50;;;;;;4932779;29;20251;-77
2022/05/30 12:05:11;;;;;;;1.30;1.20;;;16.30;84.90;;;;;;4933275;29;20556;-74
2022/05/30 12:08:03;;;;;;;1.77;1.20;;;16.60;84.40;;;;;;4933147;29;20236;-76
2022/05/30 12:10:54;;;;;;;1.70;1.27;;;17.40;89.70;;;;;;4928315;29;20299;-76
2022/05/30 12:13:41;;;;;;;1.20;1.10;;;18.00;85.60;;;;;;4934120;29;20204;-76
2022/05/30 12:16:27;;;;;;;1.90;1.20;;;18.50;83.80;;;;;;4933425;29;20215;-77
2022/05/30 12:25:46;;;;;;;2.37;1.20;;;19.70;80.60;;;;;;4930499;29;20211;-78
2022/05/30 12:28:53;;;;;;;2.33;1.17;;;19.60;80.60;;;;;;4929101;29;20353;-74
2022/05/30 12:31:37;;;;;;;1.60;1.20;;;19.60;83.50;;;;;;4928241;29;20220;-77
2022/05/30 12:34:07;;;;;;;1.73;1.40;;;19.50;82.90;;;;;;4930848;29;20208;-75
2022/05/30 12:36:46;;;;;;;2.87;1.37;;;19.40;80.60;;;;;;4935835;29;20208;-73
2022/05/30 12:39:38;;;;;;;2.30;1.37;;;19.20;78.90;;;;;;4941585;29;20242;-76
2022/05/30 12:42:26;;;;;;;2.33;1.37;;;18.30;83.30;;;;;;4937821;29;20216;-76
2022/05/30 12:44:57;;;;;;;4.03;1.27;;;18.00;78.10;;;;;;4937982;29;20212;-76
2022/05/30 12:47:33;;;;;;;3.30;1.33;;;17.90;86.80;;;;;;4938436;29;20232;-77
2022/05/30 12:50:50;;;;;;;2.07;1.27;;;17.70;84.50;;;;;;4940211;29;20215;-75
2022/05/30 12:53:20;;;;;;;4.47;1.40;;;17.60;89.10;;;;;;4930373;29;20340;-76
2022/05/30 12:55:51;;;;;;;2.43;1.00;;;17.00;84.00;;;;;;4937438;29;20224;-73
2022/05/30 12:58:23;;;;;;;1.30;1.13;;;17.10;89.80;;;;;;4935236;29;20236;-75
2022/05/30 13:01:18;;;;;;;2.63;1.50;;;17.40;86.40;;;;;;4936561;29;20549;-75
2022/05/30 13:04:02;;;;;;;1.67;1.40;;;18.00;84.20;;;;;;4923823;29;20242;-76
2022/05/30 13:06:32;;;;;;;1.60;1.50;;;18.50;81.30;;;;;;4933867;29;20224;-76
2022/05/30 13:09:08;;;;;;;4.17;2.50;;;18.60;80.20;;;;;;4934404;29;20633;-74
2022/05/30 13:12:14;;;;;;;2.87;1.77;;;18.20;78.50;;;;;;4934637;29;20259;-77
2022/05/30 13:15:05;;;;;;;2.10;1.30;;;19.10;80.80;;;;;;4924831;29;20295;-76
2022/05/30 13:17:46;;;;;;;2.10;1.10;;;19.90;78.10;;;;;;4936339;29;20340;-75
2022/05/30 13:20:17;;;;;;;1.80;1.30;;;20.50;76.60;;;;;;4934777;29;20231;-76
2022/05/30 13:22:49;;;;;;;3.20;1.40;;;21.10;76.70;;;;;;4934930;29;20304;-75
2022/05/30 13:25:21;;;;;;;2.70;1.20;;;21.10;75.30;;;;;;4937604;29;20236;-79
2022/05/30 13:27:50;;;;;;;2.30;1.30;;;21.20;72.30;;;;;;4936113;29;20208;-76
2022/05/30 13:30:26;;;;;;;2.57;1.43;;;20.90;75.90;;;;;;4941956;29;20248;-76
2022/05/30 13:32:54;;;;;;;3.10;1.30;;;21.20;77.30;;;;;;4938960;29;20286;-75
2022/05/30 13:35:28;;;;;;;2.07;1.30;;;20.80;76.60;;;;;;4938985;29;20673;-78
2022/05/30 13:38:00;;;;;;;1.37;1.00;;;20.50;70.50;;;;;;4935714;29;20671;-74
2022/05/30 13:40:30;;;;;;;1.37;1.17;;;20.80;79.00;;;;;;4932202;29;20647;-77
2022/05/30 13:43:00;;;;;;;2.17;1.30;;;21.30;78.60;;;;;;4940291;29;20319;-76
2022/05/30 13:45:50;;;;;;;1.73;1.30;;;21.70;78.00;;;;;;4935131;29;20204;-77
2022/05/30 13:48:19;;;;;;;3.23;1.10;;;21.60;75.20;;;;;;4938343;29;20224;-77
2022/05/30 13:50:58;;;;;;;1.57;1.20;;;21.20;78.50;;;;;;4937417;29;20208;-75
2022/05/30 13:53:38;;;;;;;1.83;1.23;;;20.70;75.90;;;;;;4932277;29;20255;-78
2022/05/30 13:56:10;;;;;;;1.47;1.20;;;20.70;72.10;;;;;;4936438;29;20275;-78
2022/05/30 13:58:44;;;;;;;2.50;1.53;;;20.50;75.80;;;;;;4934234;29;20240;-74
2022/05/30 14:01:16;;;;;;;1.53;1.40;;;20.20;70.90;;;;;;4935455;29;20303;-74
2022/05/30 14:03:50;;;;;;;3.03;1.20;;;19.50;75.30;;;;;;4939175;29;20231;-77
2022/05/30 14:06:21;;;;;;;1.90;1.17;;;19.70;78.90;;;;;;4934031;29;20220;-77
2022/05/30 14:08:50;;;;;;;2.80;1.10;;;20.10;79.40;;;;;;4938248;29;20209;-75
2022/05/30 14:11:18;;;;;;;4.40;1.20;;;20.20;78.90;;;;;;4939959;29;20219;-80
2022/05/30 14:13:54;;;;;;;3.23;1.37;;;20.60;81.00;;;;;;4943349;29;20291;-76
2022/05/30 14:16:35;;;;;;;4.40;1.27;;;20.40;76.70;;;;;;4940697;29;20208;-77
2022/05/30 14:19:06;;;;;;;2.30;1.30;;;20.50;76.70;;;;;;4933911;29;20650;-75
2022/05/30 14:21:38;;;;;;;2.03;1.20;;;21.00;79.20;;;;;;4938064;29;20231;-75
2022/05/30 14:24:22;;;;;;;2.93;1.27;;;21.00;74.60;;;;;;4939026;29;20647;-79
2022/05/30 14:26:50;;;;;;;2.50;1.20;;;21.10;75.20;;;;;;4938890;29;20232;-75
2022/05/30 14:29:25;;;;;;;2.07;1.20;;;20.70;74.00;;;;;;4935797;29;20666;-75
2022/05/30 14:32:07;;;;;;;1.63;1.10;;;20.00;76.90;;;;;;4933918;29;21465;-78
2022/05/30 14:34:39;;;;;;;1.60;1.30;;;20.40;77.50;;;;;;4940631;29;20245;-74
2022/05/30 14:37:23;;;;;;;1.37;1.17;;;20.70;79.20;;;;;;4937689;29;20287;-76
2022/05/30 14:39:54;;;;;;;3.50;1.13;;;20.60;73.80;;;;;;4935015;29;20218;-79
2022/05/30 14:42:26;;;;;;;2.63;1.40;;;20.80;80.60;;;;;;4937756;29;20725;-76
2022/05/30 14:45:06;;;;;;;2.73;1.33;;;20.70;71.90;;;;;;4934703;29;20223;-76
2022/05/30 14:47:38;;;;;;;2.70;1.27;;;20.50;70.90;;;;;;4937676;29;20340;-77
2022/05/30 14:50:11;;;;;;;2.17;1.33;;;20.60;76.30;;;;;;4934851;29;20211;-78
2022/05/30 14:52:46;;;;;;;1.90;1.53;;;20.40;69.50;;;;;;4940033;29;20208;-75
2022/05/30 14:55:22;;;;;;;5.13;1.57;;;20.20;71.10;;;;;;4936524;29;20298;-76
2022/05/30 14:57:53;;;;;;;2.03;1.40;;;20.10;72.70;;;;;;4936624;29;20594;-77
2022/05/30 15:00:35;;;;;;;2.47;1.37;;;20.00;74.60;;;;;;4937119;29;20200;-76
2022/05/30 15:05:51;;;;;;;2.53;1.40;;;20.00;73.10;;;;;;4934313;29;20217;-80
2022/05/30 15:08:19;;;;;;;3.07;1.57;;;19.90;75.20;;;;;;4937842;29;20238;-77
2022/05/30 15:10:47;;;;;;;2.17;1.40;;;19.80;78.50;;;;;;4933967;29;20211;-77
2022/05/30 15:13:15;;;;;;;2.00;1.47;;;19.70;76.90;;;;;;4935049;29;20722;-79
2022/05/30 15:15:43;;;;;;;1.97;1.50;;;19.70;77.30;;;;;;4928378;29;20645;-77
2022/05/30 15:18:14;;;;;;;1.63;1.53;;;19.50;71.50;;;;;;4940955;29;20243;-79
2022/05/30 15:20:44;;;;;;;4.70;1.50;;;19.20;71.80;;;;;;4931906;29;20682;-77
2022/05/30 15:23:12;;;;;;;2.07;1.50;;;19.10;72.20;;;;;;4935489;29;20212;-79
2022/05/30 15:25:40;;;;;;;2.40;1.40;;;19.10;72.30;;;;;;4932806;29;20312;-80
2022/05/30 15:28:08;;;;;;;4.47;1.40;;;19.20;78.30;;;;;;4929466;29;20244;-81
2022/05/30 15:30:37;;;;;;;5.20;1.60;;;18.70;80.10;;;;;;4933304;29;20240;-79
2022/05/30 15:33:12;;;;;;;2.97;1.60;;;18.60;81.70;;;;;;4933789;29;20200;-79
2022/05/30 15:35:41;;;;;;;2.30;1.43;;;18.10;75.80;;;;;;4941013;29;20291;-78
2022/05/30 15:38:10;;;;;;;3.00;1.37;;;17.90;79.00;;;;;;4935941;29;20697;-80
2022/05/30 15:40:58;;;;;;;2.23;1.43;;;17.70;76.70;;;;;;4932159;29;20230;-77
2022/05/30 15:43:26;;;;;;;2.63;1.60;;;17.40;75.90;;;;;;4934239;29;20709;-79
2022/05/30 15:45:56;;;;;;;1.93;1.63;;;17.30;77.00;;;;;;4934324;29;20216;-79
2022/05/30 15:48:24;;;;;;;1.93;1.60;;;17.10;80.00;;;;;;4935127;29;20215;-79
2022/05/30 15:50:55;;;;;;;3.00;1.27;;;17.00;76.70;;;;;;4934431;29;20208;-79
2022/05/30 15:59:18;;;;;;;2.33;1.50;;;17.10;84.30;;;;;;4932982;29;20243;-77
2022/05/30 16:01:47;;;;;;;4.37;1.60;;;17.30;81.50;;;;;;4932764;29;20239;-76
2022/05/30 16:04:15;;;;;;;3.80;1.60;;;17.20;83.40;;;;;;4933960;29;20319;-76
2022/05/30 16:06:47;;;;;;;2.57;1.57;;;17.00;79.40;;;;;;4933995;29;20609;-79
2022/05/30 16:09:18;;;;;;;1.30;1.13;;;17.10;80.10;;;;;;4932681;29;20272;-80
2022/05/30 16:11:50;;;;;;;1.27;1.17;;;17.20;79.70;;;;;;4934616;29;20218;-78
2022/05/30 16:14:19;;;;;;;2.20;1.30;;;17.40;80.90;;;;;;4934140;29;20287;-77
2022/05/30 16:16:47;;;;;;;1.73;1.30;;;17.50;78.80;;;;;;4934388;29;20216;-78
2022/05/30 16:19:15;;;;;;;2.47;1.40;;;17.60;82.50;;;;;;4933816;29;20303;-79
2022/05/30 16:21:52;;;;;;;2.03;1.40;;;17.70;78.10;;;;;;4935895;29;20216;-78
2022/05/30 16:24:23;;;;;;;1.83;1.30;;;17.70;78.90;;;;;;4933523;29;20704;-80
2022/05/30 16:26:52;;;;;;;2.87;1.20;;;17.70;77.10;;;;;;4934299;29;20205;-79
2022/05/30 16:29:20;;;;;;;2.57;1.37;;;17.70;78.30;;;;;;4932946;29;20212;-79
2022/05/30 16:31:48;;;;;;;1.73;1.20;;;17.50;83.90;;;;;;4934161;29;20299;-79
2022/05/30 16:34:16;;;;;;;3.80;1.43;;;17.50;80.50;;;;;;4933335;29;20232;-79
2022/05/30 16:36:47;;;;;;;2.67;1.47;;;17.30;82.20;;;;;;4931211;29;20291;-81
2022/05/30 16:39:16;;;;;;;1.43;1.23;;;17.20;82.00;;;;;;4929264;29;20271;-78
2022/05/30 16:41:44;;;;;;;6.23;1.60;;;17.30;83.60;;;;;;4931235;29;20244;-78
2022/05/30 16:44:16;;;;;;;2.23;1.33;;;17.10;81.40;;;;;;4932563;29;20216;-79
2022/05/30 16:46:45;;;;;;;2.57;1.20;;;17.10;83.90;;;;;;4929263;29;20213;-77
2022/05/30 16:49:15;;;;;;;2.80;1.07;;;17.10;84.20;;;;;;4933844;29;20694;-78
2022/05/30 16:51:44;;;;;;;2.87;1.30;;;17.10;79.80;;;;;;4929677;29;20216;-79
2022/05/30 16:54:14;;;;;;;2.13;1.03;;;17.10;77.30;;;;;;4931216;29;20254;-77
2022/05/30 16:56:43;;;;;;;1.20;0.90;;;16.90;80.40;;;;;;4934505;29;20212;-78
2022/05/30 16:59:14;;;;;;;3.60;1.13;;;16.90;80.10;;;;;;4934034;29;20216;-78
2022/05/30 17:01:43;;;;;;;2.20;1.13;;;16.90;83.50;;;;;;4934246;29;20730;-77
2022/05/30 17:04:12;;;;;;;1.77;0.93;;;16.80;80.60;;;;;;4932946;29;20212;-79
2022/05/30 17:06:41;;;;;;;2.00;1.20;;;16.80;83.40;;;;;;4934366;29;20223;-77
2022/05/30 17:09:12;;;;;;;2.83;1.10;;;16.70;82.00;;;;;;4933858;29;20639;-77
2022/05/30 17:11:42;;;;;;;1.17;0.97;;;16.50;81.70;;;;;;4934707;29;20638;-77
2022/05/30 17:14:13;;;;;;;1.83;1.00;;;16.50;83.40;;;;;;4934337;29;20212;-77
2022/05/30 17:16:43;;;;;;;2.73;1.20;;;16.40;84.60;;;;;;4938504;29;20239;-77
2022/05/30 17:19:17;;;;;;;2.80;1.10;;;16.30;79.90;;;;;;4934117;29;20211;-76
2022/05/30 17:21:45;;;;;;;3.53;1.20;;;16.20;81.40;;;;;;4941703;29;20248;-78
2022/05/30 17:24:14;;;;;;;1.17;1.00;;;16.20;83.10;;;;;;4933587;29;20255;-78
2022/05/30 17:29:37;;;;;;;1.73;1.10;;;16.10;87.30;;;;;;4934445;29;20212;-78
2022/05/30 17:32:07;;;;;;;2.70;1.07;;;15.90;83.30;;;;;;4932501;29;20675;-78
2022/05/30 17:34:35;;;;;;;1.77;1.10;;;15.90;86.30;;;;;;4934015;29;20295;-80
2022/05/30 17:37:04;;;;;;;1.77;1.10;;;15.80;88.10;;;;;;4932372;29;20212;-78
2022/05/30 17:39:32;;;;;;;3.23;1.20;;;15.80;84.70;;;;;;4935592;29;20664;-80
2022/05/30 17:42:02;;;;;;;1.23;1.00;;;15.80;83.30;;;;;;4934892;29;20308;-76
2022/05/30 17:44:30;;;;;;;1.43;0.93;;;15.70;83.70;;;;;;4940483;29;20286;-80
2022/05/30 17:47:02;;;;;;;2.83;1.30;;;15.60;84.60;;;;;;4932170;29;20323;-78
2022/05/30 17:49:44;;;;;;;1.47;1.10;;;15.50;84.70;;;;;;4933591;29;20307;-77
2022/05/30 17:52:20;;;;;;;2.07;1.17;;;15.50;83.60;;;;;;4938095;29;20286;-78
2022/05/30 17:54:49;;;;;;;1.43;1.00;;;15.40;86.50;;;;;;4936710;29;20250;-79
2022/05/30 17:57:19;;;;;;;1.90;1.10;;;15.30;84.20;;;;;;4937327;29;20186;-78